sensor_id;sensor_type;location;lat;lon;timestamp;temperature;humidity
26803;DHT22;14378;51.796;5.808;2023-08-20T00:01:26;19.20;99.90
26803;DHT22;14378;51.796;5.808;2023-08-20T00:03:28;19.20;99.90
26803;DHT22;14378;51.796;5.808;2023-08-20T00:05:30;19.20;99.90
26803;DHT22;14378;51.796;5.808;2023-08-20T00:07:31;19.30;99.90
26803;DHT22;14378;51.796;5.808;2023-08-20T00:09:32;19.30;99.90
26803;DHT22;14378;51.796;5.808;2023-08-20T00:11:33;19.30;99.90
26803;DHT22;14378;51.796;5.808;2023-08-20T00:13:34;19.20;99.90
26803;DHT22;14378;51.796;5.808;2023-08-20T00:15:35;19.20;99.90
26803;DHT22;14378;51.796;5.808;2023-08-20T00:17:36;19.20;99.90
26803;DHT22;14378;51.796;5.808;2023-08-20T00:19:38;19.20;99.90
26803;DHT22;14378;51.796;5.808;2023-08-20T00:21:42;19.20;99.90
26803;DHT22;14378;51.796;5.808;2023-08-20T00:23:43;19.10;99.90
26803;DHT22;14378;51.796;5.808;2023-08-20T00:25:44;19.10;99.90
26803;DHT22;14378;51.796;5.808;2023-08-20T00:27:45;19.10;99.90
26803;DHT22;14378;51.796;5.808;2023-08-20T00:29:46;19.10;99.90
26803;DHT22;14378;51.796;5.808;2023-08-20T00:31:47;19.10;99.90
26803;DHT22;14378;51.796;5.808;2023-08-20T00:33:48;19.00;99.90
26803;DHT22;14378;51.796;5.808;2023-08-20T00:35:49;19.00;99.90
26803;DHT22;14378;51.796;5.808;2023-08-20T00:37:50;19.00;99.90
26803;DHT22;14378;51.796;5.808;2023-08-20T00:39:51;19.00;99.90
26803;DHT22;14378;51.796;5.808;2023-08-20T00:41:52;18.90;99.90
26803;DHT22;14378;51.796;5.808;2023-08-20T00:43:53;18.90;99.90
26803;DHT22;14378;51.796;5.808;2023-08-20T00:45:59;18.90;99.90
26803;DHT22;14378;51.796;5.808;2023-08-20T00:48:00;18.90;99.90
26803;DHT22;14378;51.796;5.808;2023-08-20T00:50:02;18.80;99.90
26803;DHT22;14378;51.796;5.808;2023-08-20T00:52:11;18.80;99.90
26803;DHT22;14378;51.796;5.808;2023-08-20T00:54:13;18.80;99.90
26803;DHT22;14378;51.796;5.808;2023-08-20T00:56:15;18.70;99.90
26803;DHT22;14378;51.796;5.808;2023-08-20T00:58:16;18.70;99.90
26803;DHT22;14378;51.796;5.808;2023-08-20T01:00:17;18.70;99.90
26803;DHT22;14378;51.796;5.808;2023-08-20T01:02:18;18.70;99.90
26803;DHT22;14378;51.796;5.808;2023-08-20T01:04:19;18.70;99.90
26803;DHT22;14378;51.796;5.808;2023-08-20T01:11:28;18.60;99.90
26803;DHT22;14378;51.796;5.808;2023-08-20T01:13:33;18.60;99.90
26803;DHT22;14378;51.796;5.808;2023-08-20T01:15:34;18.60;99.90
26803;DHT22;14378;51.796;5.808;2023-08-20T01:17:38;18.60;99.90
26803;DHT22;14378;51.796;5.808;2023-08-20T01:19:38;18.60;99.90
26803;DHT22;14378;51.796;5.808;2023-08-20T01:24:10;18.60;99.90
26803;DHT22;14378;51.796;5.808;2023-08-20T01:28:40;18.60;99.90
26803;DHT22;14378;51.796;5.808;2023-08-20T01:30:42;18.60;99.90
26803;DHT22;14378;51.796;5.808;2023-08-20T01:32:50;18.60;99.90
26803;DHT22;14378;51.796;5.808;2023-08-20T01:34:53;18.60;99.90
26803;DHT22;14378;51.796;5.808;2023-08-20T01:36:54;18.60;99.90
26803;DHT22;14378;51.796;5.808;2023-08-20T01:38:55;18.60;99.90
26803;DHT22;14378;51.796;5.808;2023-08-20T01:40:57;18.70;99.90
26803;DHT22;14378;51.796;5.808;2023-08-20T01:43:00;18.70;99.90
26803;DHT22;14378;51.796;5.808;2023-08-20T01:45:01;18.70;99.90
26803;DHT22;14378;51.796;5.808;2023-08-20T01:47:03;18.70;99.90
26803;DHT22;14378;51.796;5.808;2023-08-20T01:49:04;18.70;99.90
26803;DHT22;14378;51.796;5.808;2023-08-20T01:51:05;18.80;99.90
26803;DHT22;14378;51.796;5.808;2023-08-20T01:53:06;18.80;99.90
26803;DHT22;14378;51.796;5.808;2023-08-20T01:55:07;18.80;99.90
26803;DHT22;14378;51.796;5.808;2023-08-20T01:57:08;18.80;99.90
26803;DHT22;14378;51.796;5.808;2023-08-20T01:59:08;18.80;99.90
26803;DHT22;14378;51.796;5.808;2023-08-20T02:01:09;18.80;99.90
26803;DHT22;14378;51.796;5.808;2023-08-20T02:03:10;18.80;99.90
26803;DHT22;14378;51.796;5.808;2023-08-20T02:05:11;18.90;99.90
26803;DHT22;14378;51.796;5.808;2023-08-20T02:07:13;18.90;99.90
26803;DHT22;14378;51.796;5.808;2023-08-20T02:09:13;18.90;99.90
26803;DHT22;14378;51.796;5.808;2023-08-20T02:11:15;18.90;99.90
26803;DHT22;14378;51.796;5.808;2023-08-20T02:13:19;19.00;99.90
26803;DHT22;14378;51.796;5.808;2023-08-20T02:15:24;19.00;99.90
26803;DHT22;14378;51.796;5.808;2023-08-20T02:17:25;19.00;99.90
26803;DHT22;14378;51.796;5.808;2023-08-20T02:19:26;19.00;99.90
26803;DHT22;14378;51.796;5.808;2023-08-20T02:21:26;19.10;99.90
26803;DHT22;14378;51.796;5.808;2023-08-20T02:23:27;19.00;99.90
26803;DHT22;14378;51.796;5.808;2023-08-20T02:25:28;19.00;99.90
26803;DHT22;14378;51.796;5.808;2023-08-20T02:27:29;19.00;99.90
26803;DHT22;14378;51.796;5.808;2023-08-20T02:29:30;19.00;99.90
26803;DHT22;14378;51.796;5.808;2023-08-20T02:31:32;19.00;99.90
26803;DHT22;14378;51.796;5.808;2023-08-20T02:33:33;19.00;99.90
26803;DHT22;14378;51.796;5.808;2023-08-20T02:35:33;19.00;99.90
26803;DHT22;14378;51.796;5.808;2023-08-20T02:37:35;19.00;99.90
26803;DHT22;14378;51.796;5.808;2023-08-20T02:39:37;19.00;99.90
26803;DHT22;14378;51.796;5.808;2023-08-20T02:41:38;19.00;99.90
26803;DHT22;14378;51.796;5.808;2023-08-20T02:43:38;19.00;99.90
26803;DHT22;14378;51.796;5.808;2023-08-20T02:45:41;18.90;99.90
26803;DHT22;14378;51.796;5.808;2023-08-20T02:47:42;18.90;99.90
26803;DHT22;14378;51.796;5.808;2023-08-20T02:49:43;18.90;99.90
26803;DHT22;14378;51.796;5.808;2023-08-20T02:51:45;18.90;99.90
26803;DHT22;14378;51.796;5.808;2023-08-20T02:53:46;18.90;99.90
26803;DHT22;14378;51.796;5.808;2023-08-20T02:55:47;18.90;99.90
26803;DHT22;14378;51.796;5.808;2023-08-20T02:57:48;18.90;99.90
26803;DHT22;14378;51.796;5.808;2023-08-20T02:59:50;18.80;99.90
26803;DHT22;14378;51.796;5.808;2023-08-20T03:01:51;18.90;99.90
26803;DHT22;14378;51.796;5.808;2023-08-20T03:03:52;18.90;99.90
26803;DHT22;14378;51.796;5.808;2023-08-20T03:05:52;18.90;99.90
26803;DHT22;14378;51.796;5.808;2023-08-20T03:07:53;18.90;99.90
26803;DHT22;14378;51.796;5.808;2023-08-20T03:09:54;18.80;99.90
26803;DHT22;14378;51.796;5.808;2023-08-20T03:11:55;18.80;99.90
26803;DHT22;14378;51.796;5.808;2023-08-20T03:13:56;18.80;99.90
26803;DHT22;14378;51.796;5.808;2023-08-20T03:15:56;18.80;99.90
26803;DHT22;14378;51.796;5.808;2023-08-20T03:17:57;18.80;99.90
26803;DHT22;14378;51.796;5.808;2023-08-20T03:20:00;18.80;99.90
26803;DHT22;14378;51.796;5.808;2023-08-20T03:22:01;18.80;99.90
26803;DHT22;14378;51.796;5.808;2023-08-20T03:24:02;18.70;99.90
26803;DHT22;14378;51.796;5.808;2023-08-20T03:26:03;18.70;99.90
26803;DHT22;14378;51.796;5.808;2023-08-20T03:28:04;18.70;99.90
26803;DHT22;14378;51.796;5.808;2023-08-20T03:30:07;18.60;99.90
26803;DHT22;14378;51.796;5.808;2023-08-20T03:32:09;18.60;99.90
26803;DHT22;14378;51.796;5.808;2023-08-20T03:34:10;18.60;99.90
26803;DHT22;14378;51.796;5.808;2023-08-20T03:36:11;18.50;99.90
26803;DHT22;14378;51.796;5.808;2023-08-20T03:38:12;18.50;99.90
26803;DHT22;14378;51.796;5.808;2023-08-20T03:40:13;18.50;99.90
26803;DHT22;14378;51.796;5.808;2023-08-20T03:42:17;18.50;99.90
26803;DHT22;14378;51.796;5.808;2023-08-20T03:44:18;18.40;99.90
26803;DHT22;14378;51.796;5.808;2023-08-20T03:46:19;18.50;99.90
26803;DHT22;14378;51.796;5.808;2023-08-20T03:48:19;18.40;99.90
26803;DHT22;14378;51.796;5.808;2023-08-20T03:50:21;18.40;99.90
26803;DHT22;14378;51.796;5.808;2023-08-20T03:52:22;18.40;99.90
26803;DHT22;14378;51.796;5.808;2023-08-20T03:54:24;18.30;99.90
26803;DHT22;14378;51.796;5.808;2023-08-20T03:56:25;18.30;99.90
26803;DHT22;14378;51.796;5.808;2023-08-20T03:58:26;18.30;99.90
26803;DHT22;14378;51.796;5.808;2023-08-20T04:00:27;18.30;99.90
26803;DHT22;14378;51.796;5.808;2023-08-20T04:02:28;18.20;99.90
26803;DHT22;14378;51.796;5.808;2023-08-20T04:04:29;18.20;99.90
26803;DHT22;14378;51.796;5.808;2023-08-20T04:06:31;18.10;99.90
26803;DHT22;14378;51.796;5.808;2023-08-20T04:08:32;18.10;99.90
26803;DHT22;14378;51.796;5.808;2023-08-20T04:10:33;18.10;99.90
26803;DHT22;14378;51.796;5.808;2023-08-20T04:12:34;18.00;99.90
26803;DHT22;14378;51.796;5.808;2023-08-20T04:14:35;18.00;99.90
26803;DHT22;14378;51.796;5.808;2023-08-20T04:16:36;18.00;99.90
26803;DHT22;14378;51.796;5.808;2023-08-20T04:18:37;18.00;99.90
26803;DHT22;14378;51.796;5.808;2023-08-20T04:20:38;18.00;99.90
26803;DHT22;14378;51.796;5.808;2023-08-20T04:22:39;17.90;99.90
26803;DHT22;14378;51.796;5.808;2023-08-20T04:24:41;17.90;99.90
26803;DHT22;14378;51.796;5.808;2023-08-20T04:26:42;17.90;99.90
26803;DHT22;14378;51.796;5.808;2023-08-20T04:28:45;17.80;99.90
26803;DHT22;14378;51.796;5.808;2023-08-20T04:30:46;17.80;99.90
26803;DHT22;14378;51.796;5.808;2023-08-20T04:32:46;17.80;99.90
26803;DHT22;14378;51.796;5.808;2023-08-20T04:34:49;17.80;99.90
26803;DHT22;14378;51.796;5.808;2023-08-20T04:36:54;17.70;99.90
26803;DHT22;14378;51.796;5.808;2023-08-20T04:38:55;17.70;99.90
26803;DHT22;14378;51.796;5.808;2023-08-20T04:40:56;17.70;99.90
26803;DHT22;14378;51.796;5.808;2023-08-20T04:42:57;17.70;99.90
26803;DHT22;14378;51.796;5.808;2023-08-20T04:44:58;17.70;99.90
26803;DHT22;14378;51.796;5.808;2023-08-20T04:47:00;17.60;99.90
26803;DHT22;14378;51.796;5.808;2023-08-20T04:49:03;17.60;99.90
26803;DHT22;14378;51.796;5.808;2023-08-20T04:51:05;17.60;99.90
26803;DHT22;14378;51.796;5.808;2023-08-20T04:53:06;17.60;99.90
26803;DHT22;14378;51.796;5.808;2023-08-20T04:55:07;17.60;99.90
26803;DHT22;14378;51.796;5.808;2023-08-20T04:57:08;17.50;99.90
26803;DHT22;14378;51.796;5.808;2023-08-20T04:59:09;17.50;99.90
26803;DHT22;14378;51.796;5.808;2023-08-20T05:01:25;17.50;99.90
26803;DHT22;14378;51.796;5.808;2023-08-20T05:03:26;17.50;99.90
26803;DHT22;14378;51.796;5.808;2023-08-20T05:05:28;17.50;99.90
26803;DHT22;14378;51.796;5.808;2023-08-20T05:07:28;17.50;99.90
26803;DHT22;14378;51.796;5.808;2023-08-20T05:09:30;17.50;99.90
26803;DHT22;14378;51.796;5.808;2023-08-20T05:11:31;17.50;99.90
26803;DHT22;14378;51.796;5.808;2023-08-20T05:13:33;17.50;99.90
26803;DHT22;14378;51.796;5.808;2023-08-20T05:15:34;17.50;99.90
26803;DHT22;14378;51.796;5.808;2023-08-20T05:17:35;17.50;99.90
26803;DHT22;14378;51.796;5.808;2023-08-20T05:19:36;17.50;99.90
26803;DHT22;14378;51.796;5.808;2023-08-20T05:21:37;17.40;99.90
26803;DHT22;14378;51.796;5.808;2023-08-20T05:23:38;17.40;99.90
26803;DHT22;14378;51.796;5.808;2023-08-20T05:25:40;17.50;99.90
26803;DHT22;14378;51.796;5.808;2023-08-20T05:27:41;17.50;99.90
26803;DHT22;14378;51.796;5.808;2023-08-20T05:29:42;17.40;99.90
26803;DHT22;14378;51.796;5.808;2023-08-20T05:31:43;17.40;99.90
26803;DHT22;14378;51.796;5.808;2023-08-20T05:33:45;17.50;99.90
26803;DHT22;14378;51.796;5.808;2023-08-20T05:35:46;17.50;99.90
26803;DHT22;14378;51.796;5.808;2023-08-20T05:37:46;17.50;99.90
26803;DHT22;14378;51.796;5.808;2023-08-20T05:39:47;17.50;99.90
26803;DHT22;14378;51.796;5.808;2023-08-20T05:41:49;17.50;99.90
26803;DHT22;14378;51.796;5.808;2023-08-20T05:43:50;17.50;99.90
26803;DHT22;14378;51.796;5.808;2023-08-20T05:45:51;17.50;99.90
26803;DHT22;14378;51.796;5.808;2023-08-20T05:47:55;17.50;99.90
26803;DHT22;14378;51.796;5.808;2023-08-20T05:49:57;17.50;99.90
26803;DHT22;14378;51.796;5.808;2023-08-20T05:51:58;17.60;99.90
26803;DHT22;14378;51.796;5.808;2023-08-20T05:53:59;17.60;99.90
26803;DHT22;14378;51.796;5.808;2023-08-20T05:56:00;17.60;99.90
26803;DHT22;14378;51.796;5.808;2023-08-20T05:58:01;17.70;99.90
26803;DHT22;14378;51.796;5.808;2023-08-20T06:00:04;17.70;99.90
26803;DHT22;14378;51.796;5.808;2023-08-20T06:02:16;17.70;99.90
26803;DHT22;14378;51.796;5.808;2023-08-20T06:04:19;17.80;99.90
26803;DHT22;14378;51.796;5.808;2023-08-20T06:06:20;17.80;99.90
26803;DHT22;14378;51.796;5.808;2023-08-20T06:08:21;17.80;99.90
26803;DHT22;14378;51.796;5.808;2023-08-20T06:10:22;17.80;99.90
26803;DHT22;14378;51.796;5.808;2023-08-20T06:12:23;17.90;99.90
26803;DHT22;14378;51.796;5.808;2023-08-20T06:14:24;17.90;99.90
26803;DHT22;14378;51.796;5.808;2023-08-20T06:16:25;18.00;99.90
26803;DHT22;14378;51.796;5.808;2023-08-20T06:18:26;18.00;99.90
26803;DHT22;14378;51.796;5.808;2023-08-20T06:20:27;18.10;99.90
26803;DHT22;14378;51.796;5.808;2023-08-20T06:22:28;18.10;99.90
26803;DHT22;14378;51.796;5.808;2023-08-20T06:24:29;18.20;99.90
26803;DHT22;14378;51.796;5.808;2023-08-20T06:26:29;18.20;99.90
26803;DHT22;14378;51.796;5.808;2023-08-20T06:28:30;18.20;99.90
26803;DHT22;14378;51.796;5.808;2023-08-20T06:30:31;18.30;99.90
26803;DHT22;14378;51.796;5.808;2023-08-20T06:32:32;18.40;99.90
26803;DHT22;14378;51.796;5.808;2023-08-20T06:34:36;18.40;99.90
26803;DHT22;14378;51.796;5.808;2023-08-20T06:36:37;18.50;99.90
26803;DHT22;14378;51.796;5.808;2023-08-20T06:38:40;18.50;99.90
26803;DHT22;14378;51.796;5.808;2023-08-20T06:40:41;18.60;99.90
26803;DHT22;14378;51.796;5.808;2023-08-20T06:42:42;18.70;99.90
26803;DHT22;14378;51.796;5.808;2023-08-20T06:44:43;18.70;99.90
26803;DHT22;14378;51.796;5.808;2023-08-20T06:46:44;18.80;99.90
26803;DHT22;14378;51.796;5.808;2023-08-20T06:48:45;18.90;99.90
26803;DHT22;14378;51.796;5.808;2023-08-20T06:50:45;19.00;99.90
26803;DHT22;14378;51.796;5.808;2023-08-20T06:52:46;19.10;99.90
26803;DHT22;14378;51.796;5.808;2023-08-20T06:54:47;19.20;99.90
26803;DHT22;14378;51.796;5.808;2023-08-20T06:56:48;19.20;99.90
26803;DHT22;14378;51.796;5.808;2023-08-20T06:58:49;19.30;99.90
26803;DHT22;14378;51.796;5.808;2023-08-20T07:00:49;19.40;99.90
26803;DHT22;14378;51.796;5.808;2023-08-20T07:02:50;19.50;99.90
26803;DHT22;14378;51.796;5.808;2023-08-20T07:04:51;19.60;99.90
26803;DHT22;14378;51.796;5.808;2023-08-20T07:06:52;19.70;99.90
26803;DHT22;14378;51.796;5.808;2023-08-20T07:08:52;19.80;99.90
26803;DHT22;14378;51.796;5.808;2023-08-20T07:10:53;19.80;99.90
26803;DHT22;14378;51.796;5.808;2023-08-20T07:12:54;19.90;99.90
26803;DHT22;14378;51.796;5.808;2023-08-20T07:14:55;20.00;99.90
26803;DHT22;14378;51.796;5.808;2023-08-20T07:16:55;20.10;99.90
26803;DHT22;14378;51.796;5.808;2023-08-20T07:18:56;20.10;99.90
26803;DHT22;14378;51.796;5.808;2023-08-20T07:20:57;20.20;99.90
26803;DHT22;14378;51.796;5.808;2023-08-20T07:22:58;20.30;99.90
26803;DHT22;14378;51.796;5.808;2023-08-20T07:24:59;20.40;99.90
26803;DHT22;14378;51.796;5.808;2023-08-20T07:27:00;20.40;99.90
26803;DHT22;14378;51.796;5.808;2023-08-20T07:29:03;20.60;99.90
26803;DHT22;14378;51.796;5.808;2023-08-20T07:31:04;20.60;99.90
26803;DHT22;14378;51.796;5.808;2023-08-20T07:33:06;20.70;99.90
26803;DHT22;14378;51.796;5.808;2023-08-20T07:35:07;20.80;99.90
26803;DHT22;14378;51.796;5.808;2023-08-20T07:37:09;20.80;99.90
26803;DHT22;14378;51.796;5.808;2023-08-20T07:39:10;20.90;99.90
26803;DHT22;14378;51.796;5.808;2023-08-20T07:41:12;21.00;99.90
26803;DHT22;14378;51.796;5.808;2023-08-20T07:43:13;21.10;99.90
26803;DHT22;14378;51.796;5.808;2023-08-20T07:45:14;21.30;99.90
26803;DHT22;14378;51.796;5.808;2023-08-20T07:47:14;21.40;99.90
26803;DHT22;14378;51.796;5.808;2023-08-20T07:49:15;21.50;99.90
26803;DHT22;14378;51.796;5.808;2023-08-20T07:51:16;21.60;99.90
26803;DHT22;14378;51.796;5.808;2023-08-20T07:53:17;21.70;99.90
26803;DHT22;14378;51.796;5.808;2023-08-20T07:55:18;21.80;99.90
26803;DHT22;14378;51.796;5.808;2023-08-20T07:57:22;21.90;99.90
26803;DHT22;14378;51.796;5.808;2023-08-20T07:59:23;22.00;99.90
26803;DHT22;14378;51.796;5.808;2023-08-20T08:01:24;22.10;99.90
26803;DHT22;14378;51.796;5.808;2023-08-20T08:03:26;22.20;99.90
26803;DHT22;14378;51.796;5.808;2023-08-20T08:05:28;22.30;99.90
26803;DHT22;14378;51.796;5.808;2023-08-20T08:07:29;22.40;99.90
26803;DHT22;14378;51.796;5.808;2023-08-20T08:09:31;22.40;99.90
26803;DHT22;14378;51.796;5.808;2023-08-20T08:11:32;22.50;99.90
26803;DHT22;14378;51.796;5.808;2023-08-20T08:13:33;22.50;99.90
26803;DHT22;14378;51.796;5.808;2023-08-20T08:15:33;22.60;99.90
26803;DHT22;14378;51.796;5.808;2023-08-20T08:17:34;22.70;99.90
26803;DHT22;14378;51.796;5.808;2023-08-20T08:19:35;22.80;99.90
26803;DHT22;14378;51.796;5.808;2023-08-20T08:21:36;22.90;99.90
26803;DHT22;14378;51.796;5.808;2023-08-20T08:23:37;23.00;99.90
26803;DHT22;14378;51.796;5.808;2023-08-20T08:25:37;23.10;99.90
26803;DHT22;14378;51.796;5.808;2023-08-20T08:27:39;23.20;99.90
26803;DHT22;14378;51.796;5.808;2023-08-20T08:29:39;23.30;99.90
26803;DHT22;14378;51.796;5.808;2023-08-20T08:31:40;23.40;99.90
26803;DHT22;14378;51.796;5.808;2023-08-20T08:33:41;23.50;99.90
26803;DHT22;14378;51.796;5.808;2023-08-20T08:35:42;23.60;99.90
26803;DHT22;14378;51.796;5.808;2023-08-20T08:37:43;23.70;99.90
26803;DHT22;14378;51.796;5.808;2023-08-20T08:39:43;23.80;99.90
26803;DHT22;14378;51.796;5.808;2023-08-20T08:41:44;23.80;99.90
26803;DHT22;14378;51.796;5.808;2023-08-20T08:43:46;23.90;99.90
26803;DHT22;14378;51.796;5.808;2023-08-20T08:45:48;24.00;99.90
26803;DHT22;14378;51.796;5.808;2023-08-20T08:47:49;24.10;99.90
26803;DHT22;14378;51.796;5.808;2023-08-20T08:49:52;24.30;99.90
26803;DHT22;14378;51.796;5.808;2023-08-20T08:51:59;24.30;99.90
26803;DHT22;14378;51.796;5.808;2023-08-20T08:54:01;24.40;99.90
26803;DHT22;14378;51.796;5.808;2023-08-20T08:56:02;24.60;99.90
26803;DHT22;14378;51.796;5.808;2023-08-20T08:58:04;24.60;99.90
26803;DHT22;14378;51.796;5.808;2023-08-20T09:00:05;24.60;99.90
26803;DHT22;14378;51.796;5.808;2023-08-20T09:02:11;24.70;99.90
26803;DHT22;14378;51.796;5.808;2023-08-20T09:04:12;24.90;99.90
26803;DHT22;14378;51.796;5.808;2023-08-20T09:06:13;24.90;99.90
26803;DHT22;14378;51.796;5.808;2023-08-20T09:08:27;24.90;99.90
26803;DHT22;14378;51.796;5.808;2023-08-20T09:10:28;25.00;99.90
26803;DHT22;14378;51.796;5.808;2023-08-20T09:12:34;25.00;99.90
26803;DHT22;14378;51.796;5.808;2023-08-20T09:14:35;25.10;99.90
26803;DHT22;14378;51.796;5.808;2023-08-20T09:16:35;25.10;99.90
26803;DHT22;14378;51.796;5.808;2023-08-20T09:18:44;25.20;99.90
26803;DHT22;14378;51.796;5.808;2023-08-20T09:20:46;25.40;99.90
26803;DHT22;14378;51.796;5.808;2023-08-20T09:22:50;25.60;99.90
26803;DHT22;14378;51.796;5.808;2023-08-20T09:24:54;25.80;99.90
26803;DHT22;14378;51.796;5.808;2023-08-20T09:26:58;26.00;99.90
26803;DHT22;14378;51.796;5.808;2023-08-20T09:29:00;26.00;99.90
26803;DHT22;14378;51.796;5.808;2023-08-20T09:31:03;26.10;99.90
26803;DHT22;14378;51.796;5.808;2023-08-20T09:33:11;26.20;99.90
26803;DHT22;14378;51.796;5.808;2023-08-20T09:35:20;26.30;99.90
26803;DHT22;14378;51.796;5.808;2023-08-20T09:37:23;26.40;99.90
26803;DHT22;14378;51.796;5.808;2023-08-20T09:39:24;26.50;99.90
26803;DHT22;14378;51.796;5.808;2023-08-20T09:41:25;26.70;99.90
26803;DHT22;14378;51.796;5.808;2023-08-20T09:43:28;26.80;99.90
26803;DHT22;14378;51.796;5.808;2023-08-20T09:45:31;27.00;99.90
26803;DHT22;14378;51.796;5.808;2023-08-20T09:47:35;27.10;99.90
26803;DHT22;14378;51.796;5.808;2023-08-20T09:49:39;27.40;99.90
26803;DHT22;14378;51.796;5.808;2023-08-20T09:51:40;27.60;99.90
26803;DHT22;14378;51.796;5.808;2023-08-20T09:53:48;27.80;99.90
26803;DHT22;14378;51.796;5.808;2023-08-20T09:55:56;27.90;99.90
26803;DHT22;14378;51.796;5.808;2023-08-20T09:58:03;28.10;99.90
26803;DHT22;14378;51.796;5.808;2023-08-20T10:00:06;28.20;99.90
26803;DHT22;14378;51.796;5.808;2023-08-20T10:02:16;28.40;99.90
26803;DHT22;14378;51.796;5.808;2023-08-20T10:04:17;28.60;99.90
26803;DHT22;14378;51.796;5.808;2023-08-20T10:06:19;28.70;99.90
26803;DHT22;14378;51.796;5.808;2023-08-20T10:08:21;28.90;99.90
26803;DHT22;14378;51.796;5.808;2023-08-20T10:10:21;29.10;99.90
26803;DHT22;14378;51.796;5.808;2023-08-20T10:12:23;29.20;99.90
26803;DHT22;14378;51.796;5.808;2023-08-20T10:14:24;29.40;99.90
26803;DHT22;14378;51.796;5.808;2023-08-20T10:16:27;29.50;99.90
26803;DHT22;14378;51.796;5.808;2023-08-20T10:18:28;29.70;99.90
26803;DHT22;14378;51.796;5.808;2023-08-20T10:20:29;29.90;99.90
26803;DHT22;14378;51.796;5.808;2023-08-20T10:22:38;30.00;99.90
26803;DHT22;14378;51.796;5.808;2023-08-20T10:24:49;30.10;99.90
26803;DHT22;14378;51.796;5.808;2023-08-20T10:27:10;30.10;99.10
26803;DHT22;14378;51.796;5.808;2023-08-20T10:29:37;30.10;99.90
26803;DHT22;14378;51.796;5.808;2023-08-20T10:31:54;30.30;99.90
26803;DHT22;14378;51.796;5.808;2023-08-20T10:33:57;30.40;99.30
26803;DHT22;14378;51.796;5.808;2023-08-20T10:36:07;30.50;99.90
26803;DHT22;14378;51.796;5.808;2023-08-20T10:38:12;30.70;99.90
26803;DHT22;14378;51.796;5.808;2023-08-20T10:40:14;30.90;99.90
26803;DHT22;14378;51.796;5.808;2023-08-20T10:42:27;31.00;99.90
26803;DHT22;14378;51.796;5.808;2023-08-20T10:47:07;31.30;99.10
26803;DHT22;14378;51.796;5.808;2023-08-20T10:49:07;31.40;99.20
26803;DHT22;14378;51.796;5.808;2023-08-20T10:51:14;31.40;99.00
26803;DHT22;14378;51.796;5.808;2023-08-20T10:53:15;31.60;99.90
26803;DHT22;14378;51.796;5.808;2023-08-20T10:55:17;31.60;98.30
26803;DHT22;14378;51.796;5.808;2023-08-20T10:57:33;31.70;98.60
26803;DHT22;14378;51.796;5.808;2023-08-20T10:59:39;31.90;98.10
26803;DHT22;14378;51.796;5.808;2023-08-20T11:01:50;32.00;98.70
26803;DHT22;14378;51.796;5.808;2023-08-20T11:03:51;32.00;97.70
26803;DHT22;14378;51.796;5.808;2023-08-20T11:05:52;32.10;98.70
26803;DHT22;14378;51.796;5.808;2023-08-20T11:07:53;32.20;98.10
26803;DHT22;14378;51.796;5.808;2023-08-20T11:09:55;32.20;98.70
26803;DHT22;14378;51.796;5.808;2023-08-20T11:11:58;32.30;99.10
26803;DHT22;14378;51.796;5.808;2023-08-20T11:14:06;32.40;98.10
26803;DHT22;14378;51.796;5.808;2023-08-20T11:16:08;32.50;97.20
26803;DHT22;14378;51.796;5.808;2023-08-20T11:18:09;32.60;96.80
26803;DHT22;14378;51.796;5.808;2023-08-20T11:20:10;32.60;95.80
26803;DHT22;14378;51.796;5.808;2023-08-20T11:22:13;32.70;96.70
26803;DHT22;14378;51.796;5.808;2023-08-20T11:24:16;32.70;96.40
26803;DHT22;14378;51.796;5.808;2023-08-20T11:26:18;32.70;95.70
26803;DHT22;14378;51.796;5.808;2023-08-20T11:28:19;32.70;95.50
26803;DHT22;14378;51.796;5.808;2023-08-20T11:30:21;32.90;96.40
26803;DHT22;14378;51.796;5.808;2023-08-20T11:32:26;33.00;96.60
26803;DHT22;14378;51.796;5.808;2023-08-20T11:34:26;33.20;97.30
26803;DHT22;14378;51.796;5.808;2023-08-20T11:36:27;33.20;94.70
26803;DHT22;14378;51.796;5.808;2023-08-20T11:38:28;33.30;95.60
26803;DHT22;14378;51.796;5.808;2023-08-20T11:40:30;33.40;94.60
26803;DHT22;14378;51.796;5.808;2023-08-20T11:42:31;33.40;93.80
26803;DHT22;14378;51.796;5.808;2023-08-20T11:44:45;33.40;94.00
26803;DHT22;14378;51.796;5.808;2023-08-20T11:46:47;33.30;93.70
26803;DHT22;14378;51.796;5.808;2023-08-20T11:49:08;33.30;94.90
26803;DHT22;14378;51.796;5.808;2023-08-20T11:51:11;33.40;95.20
26803;DHT22;14378;51.796;5.808;2023-08-20T11:53:12;33.50;93.40
26803;DHT22;14378;51.796;5.808;2023-08-20T11:55:13;33.50;95.10
26803;DHT22;14378;51.796;5.808;2023-08-20T11:57:14;33.60;95.40
26803;DHT22;14378;51.796;5.808;2023-08-20T11:59:15;33.80;94.80
26803;DHT22;14378;51.796;5.808;2023-08-20T12:01:18;33.90;94.80
26803;DHT22;14378;51.796;5.808;2023-08-20T12:03:19;34.00;94.80
26803;DHT22;14378;51.796;5.808;2023-08-20T12:05:21;34.10;95.60
26803;DHT22;14378;51.796;5.808;2023-08-20T12:07:25;34.20;93.90
26803;DHT22;14378;51.796;5.808;2023-08-20T12:09:27;34.00;91.40
26803;DHT22;14378;51.796;5.808;2023-08-20T12:11:28;34.00;93.40
26803;DHT22;14378;51.796;5.808;2023-08-20T12:13:29;34.00;92.70
26803;DHT22;14378;51.796;5.808;2023-08-20T12:15:29;34.10;93.20
26803;DHT22;14378;51.796;5.808;2023-08-20T12:17:30;34.10;93.20
26803;DHT22;14378;51.796;5.808;2023-08-20T12:19:31;34.20;93.10
26803;DHT22;14378;51.796;5.808;2023-08-20T12:21:32;34.20;92.70
26803;DHT22;14378;51.796;5.808;2023-08-20T12:23:33;34.20;91.90
26803;DHT22;14378;51.796;5.808;2023-08-20T12:25:35;34.10;91.20
26803;DHT22;14378;51.796;5.808;2023-08-20T12:27:36;34.20;92.80
26803;DHT22;14378;51.796;5.808;2023-08-20T12:29:37;34.20;91.20
26803;DHT22;14378;51.796;5.808;2023-08-20T12:31:38;34.40;92.60
26803;DHT22;14378;51.796;5.808;2023-08-20T12:33:39;34.50;92.70
26803;DHT22;14378;51.796;5.808;2023-08-20T12:35:43;34.50;94.00
26803;DHT22;14378;51.796;5.808;2023-08-20T12:37:46;34.50;91.10
26803;DHT22;14378;51.796;5.808;2023-08-20T12:39:46;34.60;93.30
26803;DHT22;14378;51.796;5.808;2023-08-20T12:41:47;34.70;91.30
26803;DHT22;14378;51.796;5.808;2023-08-20T12:43:49;34.70;90.50
26803;DHT22;14378;51.796;5.808;2023-08-20T12:45:49;34.90;90.60
26803;DHT22;14378;51.796;5.808;2023-08-20T12:47:50;35.00;90.60
26803;DHT22;14378;51.796;5.808;2023-08-20T12:49:51;34.90;91.40
26803;DHT22;14378;51.796;5.808;2023-08-20T12:51:52;34.80;90.80
26803;DHT22;14378;51.796;5.808;2023-08-20T12:53:53;34.90;91.00
26803;DHT22;14378;51.796;5.808;2023-08-20T12:55:54;34.90;91.00
26803;DHT22;14378;51.796;5.808;2023-08-20T12:57:58;34.90;91.40
26803;DHT22;14378;51.796;5.808;2023-08-20T13:00:00;35.00;90.10
26803;DHT22;14378;51.796;5.808;2023-08-20T13:02:01;35.00;90.80
26803;DHT22;14378;51.796;5.808;2023-08-20T13:04:03;35.20;91.30